Jarrell, Texas
Current Conditions -  °F | °C
As of 9:50 AM on Friday 28 Nov 2014 (Local Time) from KGTU Reporting Station
Overcast Overcast  
Wind Chill: 14°   Ceiling: 1700
Heat Index: 14°   Visibility: 10mi
Dew Point:   Wind: 9mph
Humidity: 72%   Direction: 190°S
Pressure: 30.3"   Gusts: NA
Location:  30.82°N, 97.6°W
Report Text: KGTU 281550Z 19008KT 10SM BKN017 OVC029 14/09 A3030
Loading
Personal Weather Stations






























Interactive Weather Map New forecast layout! Learn more

10-Day Weather Forecast

Advertisements
Track Severe Weather on mobile